Pine Valley, California
Current Conditions -  °F | °C
As of 2:53 AM on Wednesday 26 Nov 2014 (Local Time) from KRNM Reporting Station
Clear Clear  
Wind Chill:   Ceiling: Unl
Heat Index:   Visibility: 10mi
Dew Point: -2°   Wind: 3mph
Humidity: 60%   Direction: 40°NE
Pressure: 30.25"   Gusts: NA
Location:  32.86°N, 116.5°W
Report Text: KRNM 261053Z 04003KT 10SM CLR 05/M02 A3025 RMK AO2 SLP237 T00501022
Loading
Personal Weather Stations






























Interactive Weather Map New forecast layout! Learn more

10-Day Weather Forecast

Advertisements
Track Severe Weather on mobile